sensor_id;sensor_type;location;lat;lon;timestamp;P1;durP1;ratioP1;P2;durP2;ratioP2
50092;SDS011;35974;47.752;10.290;2022-08-01T00:01:57;3.22;;;1.70;;
50092;SDS011;35974;47.752;10.290;2022-08-01T00:04:24;3.80;;;1.80;;
50092;SDS011;35974;47.752;10.290;2022-08-01T00:06:50;2.03;;;1.92;;
50092;SDS011;35974;47.752;10.290;2022-08-01T00:09:17;2.40;;;2.10;;
50092;SDS011;35974;47.752;10.290;2022-08-01T00:11:49;2.42;;;1.75;;
50092;SDS011;35974;47.752;10.290;2022-08-01T00:14:25;2.20;;;2.00;;
50092;SDS011;35974;47.752;10.290;2022-08-01T00:16:58;3.75;;;2.00;;
50092;SDS011;35974;47.752;10.290;2022-08-01T00:19:32;3.10;;;1.63;;
50092;SDS011;35974;47.752;10.290;2022-08-01T00:21:59;4.32;;;1.80;;
50092;SDS011;35974;47.752;10.290;2022-08-01T00:24:25;2.70;;;2.00;;
50092;SDS011;35974;47.752;10.290;2022-08-01T00:26:52;4.68;;;2.00;;
50092;SDS011;35974;47.752;10.290;2022-08-01T00:29:18;1.92;;;1.73;;
50092;SDS011;35974;47.752;10.290;2022-08-01T00:32:05;3.50;;;2.05;;
50092;SDS011;35974;47.752;10.290;2022-08-01T00:34:33;3.85;;;2.13;;
50092;SDS011;35974;47.752;10.290;2022-08-01T00:36:59;2.47;;;2.10;;
50092;SDS011;35974;47.752;10.290;2022-08-01T00:39:26;3.20;;;1.90;;
50092;SDS011;35974;47.752;10.290;2022-08-01T00:41:52;3.60;;;2.00;;
50092;SDS011;35974;47.752;10.290;2022-08-01T00:44:26;3.85;;;2.05;;
50092;SDS011;35974;47.752;10.290;2022-08-01T00:46:53;2.35;;;1.80;;
50092;SDS011;35974;47.752;10.290;2022-08-01T00:49:24;2.63;;;2.00;;
50092;SDS011;35974;47.752;10.290;2022-08-01T00:51:51;4.15;;;2.20;;
50092;SDS011;35974;47.752;10.290;2022-08-01T00:54:17;2.58;;;1.90;;
50092;SDS011;35974;47.752;10.290;2022-08-01T00:56:44;2.33;;;1.80;;
50092;SDS011;35974;47.752;10.290;2022-08-01T00:59:11;2.78;;;2.05;;
50092;SDS011;35974;47.752;10.290;2022-08-01T01:01:41;5.70;;;2.28;;
50092;SDS011;35974;47.752;10.290;2022-08-01T01:04:12;3.17;;;2.20;;
50092;SDS011;35974;47.752;10.290;2022-08-01T01:09:13;3.22;;;2.40;;
50092;SDS011;35974;47.752;10.290;2022-08-01T01:17:19;4.03;;;2.20;;
50092;SDS011;35974;47.752;10.290;2022-08-01T01:20:11;2.85;;;2.00;;
50092;SDS011;35974;47.752;10.290;2022-08-01T01:27:57;2.83;;;2.40;;
50092;SDS011;35974;47.752;10.290;2022-08-01T01:30:34;6.93;;;2.53;;
50092;SDS011;35974;47.752;10.290;2022-08-01T01:33:05;2.80;;;2.05;;
50092;SDS011;35974;47.752;10.290;2022-08-01T01:35:34;2.88;;;2.30;;
50092;SDS011;35974;47.752;10.290;2022-08-01T01:38:37;3.30;;;2.30;;
50092;SDS011;35974;47.752;10.290;2022-08-01T01:40:59;5.63;;;2.60;;
50092;SDS011;35974;47.752;10.290;2022-08-01T01:43:28;2.63;;;2.40;;
50092;SDS011;35974;47.752;10.290;2022-08-01T01:45:59;4.18;;;2.80;;
50092;SDS011;35974;47.752;10.290;2022-08-01T01:48:26;3.08;;;2.40;;
50092;SDS011;35974;47.752;10.290;2022-08-01T01:50:54;4.45;;;2.88;;
50092;SDS011;35974;47.752;10.290;2022-08-01T01:53:22;3.10;;;2.80;;
50092;SDS011;35974;47.752;10.290;2022-08-01T01:55:52;3.58;;;3.13;;
50092;SDS011;35974;47.752;10.290;2022-08-01T01:58:20;4.57;;;3.00;;
50092;SDS011;35974;47.752;10.290;2022-08-01T02:00:49;3.78;;;3.30;;
50092;SDS011;35974;47.752;10.290;2022-08-01T02:03:18;4.47;;;3.13;;
50092;SDS011;35974;47.752;10.290;2022-08-01T02:05:47;5.72;;;2.92;;
50092;SDS011;35974;47.752;10.290;2022-08-01T02:08:15;5.72;;;2.80;;
50092;SDS011;35974;47.752;10.290;2022-08-01T02:10:44;3.03;;;2.72;;
50092;SDS011;35974;47.752;10.290;2022-08-01T02:16:00;3.55;;;2.78;;
50092;SDS011;35974;47.752;10.290;2022-08-01T02:18:29;3.33;;;2.90;;
50092;SDS011;35974;47.752;10.290;2022-08-01T02:20:56;4.72;;;3.15;;
50092;SDS011;35974;47.752;10.290;2022-08-01T02:23:25;3.10;;;2.72;;
50092;SDS011;35974;47.752;10.290;2022-08-01T02:25:58;2.90;;;2.63;;
50092;SDS011;35974;47.752;10.290;2022-08-01T02:28:36;3.88;;;2.58;;
50092;SDS011;35974;47.752;10.290;2022-08-01T02:31:09;3.85;;;2.60;;
50092;SDS011;35974;47.752;10.290;2022-08-01T02:33:42;4.60;;;2.85;;
50092;SDS011;35974;47.752;10.290;2022-08-01T02:36:12;3.53;;;2.67;;
50092;SDS011;35974;47.752;10.290;2022-08-01T02:38:58;4.70;;;3.22;;
50092;SDS011;35974;47.752;10.290;2022-08-01T02:41:27;3.15;;;2.70;;
50092;SDS011;35974;47.752;10.290;2022-08-01T02:43:59;3.75;;;2.30;;
50092;SDS011;35974;47.752;10.290;2022-08-01T02:46:31;3.00;;;2.40;;
50092;SDS011;35974;47.752;10.290;2022-08-01T02:49:02;3.53;;;2.92;;
50092;SDS011;35974;47.752;10.290;2022-08-01T02:51:31;3.03;;;2.40;;
50092;SDS011;35974;47.752;10.290;2022-08-01T02:54:00;4.38;;;3.03;;
50092;SDS011;35974;47.752;10.290;2022-08-01T02:56:28;2.85;;;2.53;;
50092;SDS011;35974;47.752;10.290;2022-08-01T02:59:04;3.08;;;2.60;;
50092;SDS011;35974;47.752;10.290;2022-08-01T03:01:35;2.60;;;2.40;;
50092;SDS011;35974;47.752;10.290;2022-08-01T03:04:03;3.25;;;2.75;;
50092;SDS011;35974;47.752;10.290;2022-08-01T03:06:31;4.40;;;2.70;;
50092;SDS011;35974;47.752;10.290;2022-08-01T03:09:00;4.72;;;2.60;;
50092;SDS011;35974;47.752;10.290;2022-08-01T03:11:29;4.07;;;2.95;;
50092;SDS011;35974;47.752;10.290;2022-08-01T03:13:57;3.42;;;2.95;;
50092;SDS011;35974;47.752;10.290;2022-08-01T03:16:27;3.10;;;2.80;;
50092;SDS011;35974;47.752;10.290;2022-08-01T03:18:55;4.50;;;2.10;;
50092;SDS011;35974;47.752;10.290;2022-08-01T03:21:23;3.67;;;2.53;;
50092;SDS011;35974;47.752;10.290;2022-08-01T03:23:51;3.00;;;2.45;;
50092;SDS011;35974;47.752;10.290;2022-08-01T03:26:27;2.63;;;2.42;;
50092;SDS011;35974;47.752;10.290;2022-08-01T03:28:55;3.92;;;2.38;;
50092;SDS011;35974;47.752;10.290;2022-08-01T03:31:25;5.15;;;2.53;;
50092;SDS011;35974;47.752;10.290;2022-08-01T03:33:53;2.78;;;2.47;;
50092;SDS011;35974;47.752;10.290;2022-08-01T03:36:25;3.45;;;2.65;;
50092;SDS011;35974;47.752;10.290;2022-08-01T03:38:53;4.20;;;2.53;;
50092;SDS011;35974;47.752;10.290;2022-08-01T03:41:24;3.58;;;3.00;;
50092;SDS011;35974;47.752;10.290;2022-08-01T03:44:36;3.47;;;2.65;;
50092;SDS011;35974;47.752;10.290;2022-08-01T03:46:47;3.97;;;2.88;;
50092;SDS011;35974;47.752;10.290;2022-08-01T03:49:20;5.72;;;2.83;;
50092;SDS011;35974;47.752;10.290;2022-08-01T03:51:49;4.28;;;2.55;;
50092;SDS011;35974;47.752;10.290;2022-08-01T03:54:20;2.97;;;2.50;;
50092;SDS011;35974;47.752;10.290;2022-08-01T03:56:48;3.78;;;3.05;;
50092;SDS011;35974;47.752;10.290;2022-08-01T03:59:17;4.57;;;2.95;;
50092;SDS011;35974;47.752;10.290;2022-08-01T04:01:45;4.80;;;2.80;;
50092;SDS011;35974;47.752;10.290;2022-08-01T04:04:12;3.60;;;2.80;;
50092;SDS011;35974;47.752;10.290;2022-08-01T04:06:39;4.80;;;3.10;;
50092;SDS011;35974;47.752;10.290;2022-08-01T04:09:07;3.03;;;2.72;;
50092;SDS011;35974;47.752;10.290;2022-08-01T04:11:38;3.85;;;3.10;;
50092;SDS011;35974;47.752;10.290;2022-08-01T04:14:07;4.05;;;2.90;;
50092;SDS011;35974;47.752;10.290;2022-08-01T04:16:34;3.78;;;2.80;;
50092;SDS011;35974;47.752;10.290;2022-08-01T04:19:01;3.65;;;2.78;;
50092;SDS011;35974;47.752;10.290;2022-08-01T04:21:28;3.30;;;2.97;;
50092;SDS011;35974;47.752;10.290;2022-08-01T04:23:58;3.65;;;3.28;;
50092;SDS011;35974;47.752;10.290;2022-08-01T04:26:32;3.70;;;2.90;;
50092;SDS011;35974;47.752;10.290;2022-08-01T04:29:02;3.40;;;3.00;;
50092;SDS011;35974;47.752;10.290;2022-08-01T04:31:31;3.70;;;3.13;;
50092;SDS011;35974;47.752;10.290;2022-08-01T04:34:00;3.50;;;3.20;;
50092;SDS011;35974;47.752;10.290;2022-08-01T04:36:29;4.70;;;2.80;;
50092;SDS011;35974;47.752;10.290;2022-08-01T04:38:59;3.13;;;2.80;;
50092;SDS011;35974;47.752;10.290;2022-08-01T04:41:27;3.58;;;3.10;;
50092;SDS011;35974;47.752;10.290;2022-08-01T04:43:56;4.22;;;3.10;;
50092;SDS011;35974;47.752;10.290;2022-08-01T04:46:25;3.45;;;2.90;;
50092;SDS011;35974;47.752;10.290;2022-08-01T04:48:53;5.45;;;3.20;;
50092;SDS011;35974;47.752;10.290;2022-08-01T04:51:21;3.72;;;3.10;;
50092;SDS011;35974;47.752;10.290;2022-08-01T04:53:50;4.65;;;3.20;;
50092;SDS011;35974;47.752;10.290;2022-08-01T04:56:17;4.10;;;2.97;;
50092;SDS011;35974;47.752;10.290;2022-08-01T04:58:45;4.00;;;3.10;;
50092;SDS011;35974;47.752;10.290;2022-08-01T05:01:11;3.30;;;3.00;;
50092;SDS011;35974;47.752;10.290;2022-08-01T05:03:38;3.13;;;2.83;;
50092;SDS011;35974;47.752;10.290;2022-08-01T05:06:05;3.58;;;2.85;;
50092;SDS011;35974;47.752;10.290;2022-08-01T05:08:32;4.18;;;3.25;;
50092;SDS011;35974;47.752;10.290;2022-08-01T05:10:58;8.18;;;3.42;;
50092;SDS011;35974;47.752;10.290;2022-08-01T05:13:27;4.43;;;3.67;;
50092;SDS011;35974;47.752;10.290;2022-08-01T05:15:53;5.25;;;3.33;;
50092;SDS011;35974;47.752;10.290;2022-08-01T05:18:20;5.05;;;2.90;;
50092;SDS011;35974;47.752;10.290;2022-08-01T05:20:53;4.20;;;3.60;;
50092;SDS011;35974;47.752;10.290;2022-08-01T05:23:20;5.65;;;3.90;;
50092;SDS011;35974;47.752;10.290;2022-08-01T05:26:06;4.07;;;3.67;;
50092;SDS011;35974;47.752;10.290;2022-08-01T05:28:34;5.05;;;3.78;;
50092;SDS011;35974;47.752;10.290;2022-08-01T05:31:01;5.47;;;4.00;;
50092;SDS011;35974;47.752;10.290;2022-08-01T05:33:27;4.85;;;4.00;;
50092;SDS011;35974;47.752;10.290;2022-08-01T05:35:54;6.07;;;3.95;;
50092;SDS011;35974;47.752;10.290;2022-08-01T05:38:20;4.72;;;4.13;;
50092;SDS011;35974;47.752;10.290;2022-08-01T05:40:47;5.38;;;3.95;;
50092;SDS011;35974;47.752;10.290;2022-08-01T05:43:13;6.60;;;3.70;;
50092;SDS011;35974;47.752;10.290;2022-08-01T05:45:40;4.13;;;3.72;;
50092;SDS011;35974;47.752;10.290;2022-08-01T05:48:07;6.05;;;4.18;;
50092;SDS011;35974;47.752;10.290;2022-08-01T05:50:34;5.45;;;4.82;;
50092;SDS011;35974;47.752;10.290;2022-08-01T05:53:00;11.38;;;5.10;;
50092;SDS011;35974;47.752;10.290;2022-08-01T05:55:27;5.38;;;4.50;;
50092;SDS011;35974;47.752;10.290;2022-08-01T05:57:53;6.70;;;3.95;;
50092;SDS011;35974;47.752;10.290;2022-08-01T06:00:20;5.22;;;4.07;;
50092;SDS011;35974;47.752;10.290;2022-08-01T06:02:47;4.85;;;4.32;;
50092;SDS011;35974;47.752;10.290;2022-08-01T06:05:13;5.13;;;4.20;;
50092;SDS011;35974;47.752;10.290;2022-08-01T06:07:40;8.82;;;5.35;;
50092;SDS011;35974;47.752;10.290;2022-08-01T06:10:06;6.13;;;4.43;;
50092;SDS011;35974;47.752;10.290;2022-08-01T06:12:34;5.70;;;5.10;;
50092;SDS011;35974;47.752;10.290;2022-08-01T06:15:01;6.13;;;4.28;;
50092;SDS011;35974;47.752;10.290;2022-08-01T06:17:32;6.43;;;4.07;;
50092;SDS011;35974;47.752;10.290;2022-08-01T06:19:58;5.80;;;3.78;;
50092;SDS011;35974;47.752;10.290;2022-08-01T06:22:25;6.07;;;3.75;;
50092;SDS011;35974;47.752;10.290;2022-08-01T06:24:53;4.22;;;3.60;;
50092;SDS011;35974;47.752;10.290;2022-08-01T06:27:19;9.05;;;4.65;;
50092;SDS011;35974;47.752;10.290;2022-08-01T06:29:47;6.35;;;4.68;;
50092;SDS011;35974;47.752;10.290;2022-08-01T06:32:19;5.55;;;3.88;;
50092;SDS011;35974;47.752;10.290;2022-08-01T06:34:53;4.47;;;3.78;;
50092;SDS011;35974;47.752;10.290;2022-08-01T06:37:21;4.53;;;3.78;;
50092;SDS011;35974;47.752;10.290;2022-08-01T06:39:47;4.30;;;3.58;;
50092;SDS011;35974;47.752;10.290;2022-08-01T06:42:15;3.95;;;3.25;;
50092;SDS011;35974;47.752;10.290;2022-08-01T06:44:42;6.70;;;4.03;;
50092;SDS011;35974;47.752;10.290;2022-08-01T06:47:08;3.83;;;3.13;;
50092;SDS011;35974;47.752;10.290;2022-08-01T06:49:35;5.53;;;3.08;;
50092;SDS011;35974;47.752;10.290;2022-08-01T06:52:02;7.00;;;3.20;;
50092;SDS011;35974;47.752;10.290;2022-08-01T06:54:30;3.50;;;2.80;;
50092;SDS011;35974;47.752;10.290;2022-08-01T06:56:56;4.28;;;3.00;;
50092;SDS011;35974;47.752;10.290;2022-08-01T06:59:23;3.95;;;2.92;;
50092;SDS011;35974;47.752;10.290;2022-08-01T07:01:49;4.72;;;3.40;;
50092;SDS011;35974;47.752;10.290;2022-08-01T07:04:16;3.47;;;2.80;;
50092;SDS011;35974;47.752;10.290;2022-08-01T07:06:42;5.72;;;2.90;;
50092;SDS011;35974;47.752;10.290;2022-08-01T07:09:09;4.75;;;3.28;;
50092;SDS011;35974;47.752;10.290;2022-08-01T07:11:39;7.22;;;3.40;;
50092;SDS011;35974;47.752;10.290;2022-08-01T07:14:13;4.97;;;3.58;;
50092;SDS011;35974;47.752;10.290;2022-08-01T07:16:40;4.57;;;2.75;;
50092;SDS011;35974;47.752;10.290;2022-08-01T07:19:06;4.15;;;3.22;;
50092;SDS011;35974;47.752;10.290;2022-08-01T07:21:34;5.00;;;2.75;;
50092;SDS011;35974;47.752;10.290;2022-08-01T07:24:09;5.88;;;3.25;;
50092;SDS011;35974;47.752;10.290;2022-08-01T07:26:42;3.22;;;2.88;;
50092;SDS011;35974;47.752;10.290;2022-08-01T07:29:21;5.53;;;3.10;;
50092;SDS011;35974;47.752;10.290;2022-08-01T07:32:00;4.82;;;2.90;;
50092;SDS011;35974;47.752;10.290;2022-08-01T07:34:38;4.55;;;3.00;;
50092;SDS011;35974;47.752;10.290;2022-08-01T07:37:04;3.50;;;3.00;;
50092;SDS011;35974;47.752;10.290;2022-08-01T07:39:32;4.68;;;2.60;;
50092;SDS011;35974;47.752;10.290;2022-08-01T07:41:59;6.57;;;3.03;;
50092;SDS011;35974;47.752;10.290;2022-08-01T07:47:06;3.95;;;3.10;;
50092;SDS011;35974;47.752;10.290;2022-08-01T07:49:33;4.60;;;3.10;;
50092;SDS011;35974;47.752;10.290;2022-08-01T08:06:55;4.75;;;2.38;;
50092;SDS011;35974;47.752;10.290;2022-08-01T08:09:22;4.63;;;2.70;;
50092;SDS011;35974;47.752;10.290;2022-08-01T08:11:49;3.22;;;2.38;;
50092;SDS011;35974;47.752;10.290;2022-08-01T08:14:16;3.30;;;2.35;;
50092;SDS011;35974;47.752;10.290;2022-08-01T08:16:43;2.60;;;2.33;;
50092;SDS011;35974;47.752;10.290;2022-08-01T08:19:10;2.78;;;2.17;;
50092;SDS011;35974;47.752;10.290;2022-08-01T08:21:37;3.35;;;2.08;;
50092;SDS011;35974;47.752;10.290;2022-08-01T08:24:04;3.58;;;2.63;;
50092;SDS011;35974;47.752;10.290;2022-08-01T08:26:53;5.25;;;2.20;;
50092;SDS011;35974;47.752;10.290;2022-08-01T08:29:28;3.10;;;2.10;;
50092;SDS011;35974;47.752;10.290;2022-08-01T08:32:03;4.18;;;2.22;;
50092;SDS011;35974;47.752;10.290;2022-08-01T08:34:30;7.72;;;2.35;;
50092;SDS011;35974;47.752;10.290;2022-08-01T08:36:57;4.28;;;2.28;;
50092;SDS011;35974;47.752;10.290;2022-08-01T08:39:25;2.75;;;2.05;;
50092;SDS011;35974;47.752;10.290;2022-08-01T08:41:52;3.30;;;2.10;;
50092;SDS011;35974;47.752;10.290;2022-08-01T08:44:19;3.67;;;1.90;;
50092;SDS011;35974;47.752;10.290;2022-08-01T08:46:50;3.25;;;1.90;;
50092;SDS011;35974;47.752;10.290;2022-08-01T08:49:19;4.05;;;2.15;;
50092;SDS011;35974;47.752;10.290;2022-08-01T08:51:50;2.55;;;1.88;;
50092;SDS011;35974;47.752;10.290;2022-08-01T08:54:18;3.85;;;1.77;;
50092;SDS011;35974;47.752;10.290;2022-08-01T08:57:02;1.98;;;1.73;;
50092;SDS011;35974;47.752;10.290;2022-08-01T08:59:30;2.28;;;2.00;;
50092;SDS011;35974;47.752;10.290;2022-08-01T09:01:57;2.85;;;1.85;;
50092;SDS011;35974;47.752;10.290;2022-08-01T09:04:24;6.90;;;2.00;;
50092;SDS011;35974;47.752;10.290;2022-08-01T09:06:52;3.08;;;1.95;;
50092;SDS011;35974;47.752;10.290;2022-08-01T09:09:20;2.53;;;1.90;;
50092;SDS011;35974;47.752;10.290;2022-08-01T09:11:47;2.60;;;1.90;;
50092;SDS011;35974;47.752;10.290;2022-08-01T09:14:22;2.40;;;2.20;;
50092;SDS011;35974;47.752;10.290;2022-08-01T09:17:08;3.67;;;2.60;;
50092;SDS011;35974;47.752;10.290;2022-08-01T09:19:38;3.63;;;2.60;;
50092;SDS011;35974;47.752;10.290;2022-08-01T09:22:10;4.53;;;2.40;;
50092;SDS011;35974;47.752;10.290;2022-08-01T09:24:39;2.85;;;2.33;;
50092;SDS011;35974;47.752;10.290;2022-08-01T09:27:25;3.67;;;1.92;;
50092;SDS011;35974;47.752;10.290;2022-08-01T09:29:52;2.55;;;1.95;;
50092;SDS011;35974;47.752;10.290;2022-08-01T09:32:28;2.25;;;1.80;;
50092;SDS011;35974;47.752;10.290;2022-08-01T09:43:20;3.83;;;2.15;;
50092;SDS011;35974;47.752;10.290;2022-08-01T09:45:48;2.13;;;1.90;;
50092;SDS011;35974;47.752;10.290;2022-08-01T09:50:59;3.40;;;1.95;;
50092;SDS011;35974;47.752;10.290;2022-08-01T09:54:08;4.75;;;2.13;;
50092;SDS011;35974;47.752;10.290;2022-08-01T09:56:41;3.33;;;1.90;;
50092;SDS011;35974;47.752;10.290;2022-08-01T09:59:09;2.95;;;1.80;;
50092;SDS011;35974;47.752;10.290;2022-08-01T10:01:46;3.08;;;2.13;;
50092;SDS011;35974;47.752;10.290;2022-08-01T10:04:16;3.15;;;1.92;;
50092;SDS011;35974;47.752;10.290;2022-08-01T10:06:45;3.25;;;2.10;;
50092;SDS011;35974;47.752;10.290;2022-08-01T10:09:28;3.47;;;1.77;;
50092;SDS011;35974;47.752;10.290;2022-08-01T10:12:06;2.85;;;1.88;;
50092;SDS011;35974;47.752;10.290;2022-08-01T10:14:41;3.08;;;2.15;;
50092;SDS011;35974;47.752;10.290;2022-08-01T10:17:14;2.28;;;1.75;;
50092;SDS011;35974;47.752;10.290;2022-08-01T10:19:45;1.75;;;1.60;;
50092;SDS011;35974;47.752;10.290;2022-08-01T10:22:13;4.15;;;1.88;;
50092;SDS011;35974;47.752;10.290;2022-08-01T10:24:43;2.13;;;1.80;;
50092;SDS011;35974;47.752;10.290;2022-08-01T10:27:14;3.38;;;2.08;;
50092;SDS011;35974;47.752;10.290;2022-08-01T10:29:51;5.28;;;2.00;;
50092;SDS011;35974;47.752;10.290;2022-08-01T10:32:35;2.45;;;1.83;;
50092;SDS011;35974;47.752;10.290;2022-08-01T10:35:04;2.13;;;1.80;;
50092;SDS011;35974;47.752;10.290;2022-08-01T10:37:40;2.55;;;1.95;;
50092;SDS011;35974;47.752;10.290;2022-08-01T10:40:17;2.20;;;1.65;;
50092;SDS011;35974;47.752;10.290;2022-08-01T10:43:02;3.85;;;2.10;;
50092;SDS011;35974;47.752;10.290;2022-08-01T10:45:29;4.60;;;2.05;;
50092;SDS011;35974;47.752;10.290;2022-08-01T10:48:20;2.47;;;1.60;;
50092;SDS011;35974;47.752;10.290;2022-08-01T10:50:52;2.72;;;1.88;;
50092;SDS011;35974;47.752;10.290;2022-08-01T10:53:24;5.03;;;2.10;;
50092;SDS011;35974;47.752;10.290;2022-08-01T10:56:00;3.30;;;1.80;;
50092;SDS011;35974;47.752;10.290;2022-08-01T10:58:34;3.10;;;1.80;;
50092;SDS011;35974;47.752;10.290;2022-08-01T11:01:16;1.80;;;1.38;;
50092;SDS011;35974;47.752;10.290;2022-08-01T11:10:08;2.83;;;1.77;;
50092;SDS011;35974;47.752;10.290;2022-08-01T11:12:41;4.28;;;1.90;;
50092;SDS011;35974;47.752;10.290;2022-08-01T11:17:36;2.72;;;1.45;;
50092;SDS011;35974;47.752;10.290;2022-08-01T11:28:24;1.98;;;1.60;;
50092;SDS011;35974;47.752;10.290;2022-08-01T11:38:41;2.53;;;1.58;;
50092;SDS011;35974;47.752;10.290;2022-08-01T11:44:11;1.85;;;1.42;;
50092;SDS011;35974;47.752;10.290;2022-08-01T11:47:04;2.28;;;1.50;;
50092;SDS011;35974;47.752;10.290;2022-08-01T11:52:19;1.73;;;1.20;;
50092;SDS011;35974;47.752;10.290;2022-08-01T11:54:53;1.37;;;1.10;;
50092;SDS011;35974;47.752;10.290;2022-08-01T11:57:29;1.63;;;1.17;;
50092;SDS011;35974;47.752;10.290;2022-08-01T12:00:03;2.13;;;1.35;;
50092;SDS011;35974;47.752;10.290;2022-08-01T12:02:40;1.50;;;1.40;;
50092;SDS011;35974;47.752;10.290;2022-08-01T12:05:11;2.03;;;1.23;;
50092;SDS011;35974;47.752;10.290;2022-08-01T12:07:44;3.03;;;1.48;;
50092;SDS011;35974;47.752;10.290;2022-08-01T12:10:13;2.25;;;1.23;;
50092;SDS011;35974;47.752;10.290;2022-08-01T12:12:43;2.13;;;1.40;;
50092;SDS011;35974;47.752;10.290;2022-08-01T12:15:11;2.63;;;1.50;;
50092;SDS011;35974;47.752;10.290;2022-08-01T12:17:49;1.90;;;1.30;;
50092;SDS011;35974;47.752;10.290;2022-08-01T12:20:25;1.75;;;1.10;;
50092;SDS011;35974;47.752;10.290;2022-08-01T12:23:03;3.63;;;1.00;;
50092;SDS011;35974;47.752;10.290;2022-08-01T12:25:34;0.82;;;0.77;;
50092;SDS011;35974;47.752;10.290;2022-08-01T12:28:02;1.17;;;1.08;;
50092;SDS011;35974;47.752;10.290;2022-08-01T12:30:34;2.00;;;1.20;;
50092;SDS011;35974;47.752;10.290;2022-08-01T12:33:03;1.27;;;0.85;;
50092;SDS011;35974;47.752;10.290;2022-08-01T12:35:31;1.33;;;1.00;;
50092;SDS011;35974;47.752;10.290;2022-08-01T12:37:59;2.30;;;1.20;;
50092;SDS011;35974;47.752;10.290;2022-08-01T12:40:31;3.53;;;1.30;;
50092;SDS011;35974;47.752;10.290;2022-08-01T12:43:06;1.45;;;1.17;;
50092;SDS011;35974;47.752;10.290;2022-08-01T12:45:44;1.83;;;1.30;;
50092;SDS011;35974;47.752;10.290;2022-08-01T12:48:22;1.50;;;1.20;;
50092;SDS011;35974;47.752;10.290;2022-08-01T12:50:50;2.03;;;1.20;;
50092;SDS011;35974;47.752;10.290;2022-08-01T12:53:18;3.47;;;1.40;;
50092;SDS011;35974;47.752;10.290;2022-08-01T12:55:54;3.33;;;1.48;;
50092;SDS011;35974;47.752;10.290;2022-08-01T12:58:29;1.13;;;1.02;;
50092;SDS011;35974;47.752;10.290;2022-08-01T13:01:05;1.30;;;1.20;;
50092;SDS011;35974;47.752;10.290;2022-08-01T13:03:33;1.77;;;1.10;;
50092;SDS011;35974;47.752;10.290;2022-08-01T13:06:00;2.03;;;1.52;;
50092;SDS011;35974;47.752;10.290;2022-08-01T13:08:30;1.75;;;1.13;;
50092;SDS011;35974;47.752;10.290;2022-08-01T13:11:02;2.92;;;1.33;;
50092;SDS011;35974;47.752;10.290;2022-08-01T13:13:39;2.78;;;2.00;;
50092;SDS011;35974;47.752;10.290;2022-08-01T13:16:08;2.50;;;1.58;;
50092;SDS011;35974;47.752;10.290;2022-08-01T13:18:47;1.45;;;1.20;;
50092;SDS011;35974;47.752;10.290;2022-08-01T13:21:17;1.52;;;1.13;;
50092;SDS011;35974;47.752;10.290;2022-08-01T13:26:43;1.92;;;1.25;;
50092;SDS011;35974;47.752;10.290;2022-08-01T13:29:13;1.40;;;1.10;;
50092;SDS011;35974;47.752;10.290;2022-08-01T13:31:44;1.08;;;0.90;;
50092;SDS011;35974;47.752;10.290;2022-08-01T13:34:11;1.83;;;0.93;;
50092;SDS011;35974;47.752;10.290;2022-08-01T13:36:38;1.92;;;1.00;;
50092;SDS011;35974;47.752;10.290;2022-08-01T13:39:12;1.40;;;1.00;;
50092;SDS011;35974;47.752;10.290;2022-08-01T13:41:57;2.53;;;0.93;;
50092;SDS011;35974;47.752;10.290;2022-08-01T13:44:23;1.63;;;0.88;;
50092;SDS011;35974;47.752;10.290;2022-08-01T13:46:49;2.80;;;1.05;;
50092;SDS011;35974;47.752;10.290;2022-08-01T13:49:17;3.08;;;0.88;;
50092;SDS011;35974;47.752;10.290;2022-08-01T13:51:44;2.65;;;0.98;;
50092;SDS011;35974;47.752;10.290;2022-08-01T13:54:11;1.42;;;1.00;;
50092;SDS011;35974;47.752;10.290;2022-08-01T13:56:38;2.45;;;1.00;;
50092;SDS011;35974;47.752;10.290;2022-08-01T13:59:04;0.85;;;0.77;;
50092;SDS011;35974;47.752;10.290;2022-08-01T14:01:34;2.88;;;0.80;;
50092;SDS011;35974;47.752;10.290;2022-08-01T14:04:01;1.15;;;1.05;;
50092;SDS011;35974;47.752;10.290;2022-08-01T14:06:28;2.85;;;0.90;;
50092;SDS011;35974;47.752;10.290;2022-08-01T14:08:55;1.98;;;0.73;;
50092;SDS011;35974;47.752;10.290;2022-08-01T14:11:22;1.17;;;0.80;;
50092;SDS011;35974;47.752;10.290;2022-08-01T14:13:48;2.20;;;0.80;;
50092;SDS011;35974;47.752;10.290;2022-08-01T14:16:16;1.20;;;0.77;;
50092;SDS011;35974;47.752;10.290;2022-08-01T14:18:43;1.15;;;0.80;;
50092;SDS011;35974;47.752;10.290;2022-08-01T14:21:14;1.90;;;1.15;;
50092;SDS011;35974;47.752;10.290;2022-08-01T14:23:41;1.52;;;0.80;;
50092;SDS011;35974;47.752;10.290;2022-08-01T14:26:09;0.95;;;0.68;;
50092;SDS011;35974;47.752;10.290;2022-08-01T14:28:38;2.45;;;0.80;;
50092;SDS011;35974;47.752;10.290;2022-08-01T14:31:06;1.67;;;0.70;;
50092;SDS011;35974;47.752;10.290;2022-08-01T14:33:33;1.88;;;0.98;;
50092;SDS011;35974;47.752;10.290;2022-08-01T14:36:01;1.25;;;0.70;;
50092;SDS011;35974;47.752;10.290;2022-08-01T14:38:48;3.00;;;1.05;;
50092;SDS011;35974;47.752;10.290;2022-08-01T14:41:15;1.48;;;0.90;;
50092;SDS011;35974;47.752;10.290;2022-08-01T14:43:41;1.35;;;1.00;;
50092;SDS011;35974;47.752;10.290;2022-08-01T14:46:08;1.77;;;0.80;;
50092;SDS011;35974;47.752;10.290;2022-08-01T14:48:36;1.30;;;1.00;;
50092;SDS011;35974;47.752;10.290;2022-08-01T14:51:18;2.05;;;0.90;;
50092;SDS011;35974;47.752;10.290;2022-08-01T14:53:45;1.20;;;0.90;;
50092;SDS011;35974;47.752;10.290;2022-08-01T14:56:18;1.40;;;1.10;;
50092;SDS011;35974;47.752;10.290;2022-08-01T14:58:44;1.35;;;1.00;;
50092;SDS011;35974;47.752;10.290;2022-08-01T15:01:11;1.35;;;0.85;;
50092;SDS011;35974;47.752;10.290;2022-08-01T15:03:37;1.83;;;1.00;;
50092;SDS011;35974;47.752;10.290;2022-08-01T15:06:04;2.53;;;1.23;;
50092;SDS011;35974;47.752;10.290;2022-08-01T15:08:32;4.10;;;1.35;;
50092;SDS011;35974;47.752;10.290;2022-08-01T15:10:59;3.15;;;1.50;;
50092;SDS011;35974;47.752;10.290;2022-08-01T15:13:27;2.22;;;1.40;;
50092;SDS011;35974;47.752;10.290;2022-08-01T15:15:53;3.08;;;1.50;;
50092;SDS011;35974;47.752;10.290;2022-08-01T15:21:11;3.75;;;1.60;;
50092;SDS011;35974;47.752;10.290;2022-08-01T15:23:58;4.15;;;1.50;;
50092;SDS011;35974;47.752;10.290;2022-08-01T15:26:24;2.22;;;1.50;;
50092;SDS011;35974;47.752;10.290;2022-08-01T15:28:51;3.53;;;2.08;;
50092;SDS011;35974;47.752;10.290;2022-08-01T15:31:18;3.53;;;1.67;;
50092;SDS011;35974;47.752;10.290;2022-08-01T15:33:44;2.67;;;1.58;;
50092;SDS011;35974;47.752;10.290;2022-08-01T15:36:11;4.30;;;1.77;;
50092;SDS011;35974;47.752;10.290;2022-08-01T15:38:40;3.45;;;1.77;;
50092;SDS011;35974;47.752;10.290;2022-08-01T15:41:08;3.28;;;1.80;;
50092;SDS011;35974;47.752;10.290;2022-08-01T15:43:34;4.72;;;2.10;;
50092;SDS011;35974;47.752;10.290;2022-08-01T15:46:09;3.08;;;1.60;;
50092;SDS011;35974;47.752;10.290;2022-08-01T15:48:35;2.35;;;1.58;;
50092;SDS011;35974;47.752;10.290;2022-08-01T15:51:05;1.95;;;1.42;;
50092;SDS011;35974;47.752;10.290;2022-08-01T15:53:31;5.20;;;1.70;;
50092;SDS011;35974;47.752;10.290;2022-08-01T15:55:58;4.07;;;1.63;;
50092;SDS011;35974;47.752;10.290;2022-08-01T15:58:25;4.80;;;1.75;;
50092;SDS011;35974;47.752;10.290;2022-08-01T16:00:52;2.25;;;1.55;;
50092;SDS011;35974;47.752;10.290;2022-08-01T16:03:19;2.90;;;1.60;;
50092;SDS011;35974;47.752;10.290;2022-08-01T16:05:46;2.35;;;1.50;;
50092;SDS011;35974;47.752;10.290;2022-08-01T16:08:15;2.38;;;1.50;;
50092;SDS011;35974;47.752;10.290;2022-08-01T16:10:42;4.13;;;1.48;;
50092;SDS011;35974;47.752;10.290;2022-08-01T16:13:08;2.97;;;1.60;;